Terminal Aerodrome Forecast
Issued by NWS

Home | Current Version | Previous Version | Text Only | Print | Product List | Glossary On
Versions: 1 2 3 4 5 6 7 8 9 10 11 12 13
000
FTUS43 KILX 210500
TAFBMI
TAF
KBMI 210520Z 2106/2206 18008KT P6SM BKN150
     FM211600 23012KT P6SM VCSH BKN080
     FM211900 24012KT 6SM -SHRA VCTS SCT035CB BKN070
     FM220200 27008KT P6SM BKN100=

USA.gov is the U.S. government's official web portal to all federal, state and local government web resources and services.